Time;durP1;ratioP1;P1;durP2;ratioP2;P2;SDS_P1;SDS_P2;PMS_P1;PMS_P2;Temp;Humidity;BMP_temperature;BMP_pressure;BME280_temperature;BME280_humidity;BME280_pressure;Samples;Min_cycle;Max_cycle;Signal;HPM_P1;HPM_P2
2023/04/04 00:02:07;;;;;;;2.83;1.30;;;;;;;9.71;100.00;63962.25;5031140;28;20316;-56
2023/04/04 00:04:32;;;;;;;1.00;0.97;;;;;;;9.72;100.00;63960.84;5031232;28;20214;-52
2023/04/04 00:06:58;;;;;;;1.20;1.10;;;;;;;9.63;100.00;63953.50;5030982;28;20226;-53
2023/04/04 00:09:23;;;;;;;1.03;1.03;;;;;;;9.57;100.00;63946.41;5031096;28;20214;-51
2023/04/04 00:11:49;;;;;;;1.67;1.33;;;;;;;9.72;100.00;63960.84;5030779;28;20296;-55
2023/04/04 00:14:14;;;;;;;1.40;1.30;;;;;;;9.70;100.00;63958.66;5030999;28;20229;-52
2023/04/04 00:16:40;;;;;;;1.40;1.30;;;;;;;9.78;100.00;63967.38;5030854;28;20224;-52
2023/04/04 00:19:06;;;;;;;1.40;1.30;;;;;;;9.79;100.00;63965.97;5031329;28;20249;-55
2023/04/04 00:21:32;;;;;;;1.37;1.27;;;;;;;9.77;100.00;63968.81;5033645;28;20190;-51
2023/04/04 00:23:58;;;;;;;1.33;1.23;;;;;;;9.94;100.00;63984.34;5034300;28;20717;-51
2023/04/04 00:26:25;;;;;;;1.37;1.20;;;;;;;9.79;100.00;63970.47;5034280;28;20295;-55
2023/04/04 00:28:50;;;;;;;1.20;1.10;;;;;;;9.70;100.00;63958.09;5034054;28;20213;-52
2023/04/04 00:31:16;;;;;;;0.90;0.90;;;;;;;9.70;100.00;63958.66;5034247;28;20214;-52
2023/04/04 00:33:42;;;;;;;1.07;1.07;;;;;;;9.79;100.00;63968.50;5034175;28;20189;-57
2023/04/04 00:36:07;;;;;;;1.60;1.00;;;;;;;9.82;100.00;63971.78;5034516;28;20197;-55
2023/04/04 00:38:33;;;;;;;2.87;1.30;;;;;;;9.85;100.00;63977.56;5033998;28;20186;-55
2023/04/04 00:40:58;;;;;;;1.50;1.27;;;;;;;9.74;100.00;63963.00;5034011;28;20206;-60
2023/04/04 00:43:26;;;;;;;2.00;1.80;;;;;;;9.85;100.00;63977.56;5034354;28;20656;-52
2023/04/04 00:45:51;;;;;;;4.47;1.70;;;;;;;9.58;100.00;63947.50;5034222;28;20226;-56
2023/04/04 00:48:17;;;;;;;2.30;1.90;;;;;;;9.73;100.00;63964.44;5034050;28;20197;-57
2023/04/04 00:50:42;;;;;;;2.20;2.00;;;;;;;9.62;100.00;63952.41;5034065;28;20222;-51
2023/04/04 00:53:08;;;;;;;2.10;1.90;;;;;;;9.59;100.00;63946.63;5033794;28;20333;-57
2023/04/04 00:55:37;;;;;;;3.13;2.20;;;;;;;9.57;100.00;63946.94;5033855;28;20270;-53
2023/04/04 00:58:03;;;;;;;2.20;2.00;;;;;;;9.67;100.00;63955.38;5033902;28;20297;-56
2023/04/04 01:00:28;;;;;;;2.47;2.27;;;;;;;9.66;100.00;63956.78;5033627;28;20294;-51
2023/04/04 01:02:54;;;;;;;4.33;2.20;;;;;;;9.64;100.00;63954.03;5033803;28;20224;-53
2023/04/04 01:05:19;;;;;;;2.27;2.07;;;;;;;9.44;100.00;63932.19;5034075;28;20209;-57
2023/04/04 01:07:45;;;;;;;2.13;1.90;;;;;;;9.48;100.00;63934.59;5033570;28;20216;-55
2023/04/04 01:10:11;;;;;;;3.13;2.20;;;;;;;9.38;100.00;63925.63;5033789;28;20252;-55
2023/04/04 01:12:37;;;;;;;2.43;2.23;;;;;;;9.23;100.00;63909.78;5033377;28;20733;-55
2023/04/04 01:15:02;;;;;;;3.53;2.70;;;;;;;9.19;100.00;63905.41;5033721;28;20214;-55
2023/04/04 01:17:28;;;;;;;3.30;2.80;;;;;;;9.10;100.00;63893.06;5033512;28;20233;-54
2023/04/04 01:20:06;;;;;;;2.40;2.20;;;;;;;9.21;100.00;63905.63;5033481;28;20248;-52
2023/04/04 01:22:33;;;;;;;2.80;2.60;;;;;;;9.21;100.00;63908.13;5033704;28;20186;-51
2023/04/04 01:25:00;;;;;;;3.00;2.30;;;;;;;9.16;100.00;63900.16;5033295;28;20426;-51
2023/04/04 01:27:25;;;;;;;3.23;2.50;;;;;;;9.17;100.00;63901.25;5015601;28;20190;-52
2023/04/04 01:29:52;;;;;;;4.47;2.27;;;;;;;9.24;100.00;63910.88;5033167;28;20218;-53
2023/04/04 01:32:29;;;;;;;2.63;2.43;;;;;;;9.07;100.00;63889.78;5033112;28;20319;-53
2023/04/04 01:35:05;;;;;;;2.83;2.47;;;;;;;9.11;100.00;63897.19;5033548;28;20297;-51
2023/04/04 01:37:39;;;;;;;2.73;2.30;;;;;;;9.10;100.00;63895.56;5033379;28;20229;-52
2023/04/04 01:40:23;;;;;;;2.80;2.60;;;;;;;9.07;100.00;63890.31;5033488;28;20221;-57
2023/04/04 01:42:50;;;;;;;4.60;2.40;;;;;;;9.14;100.00;63899.94;5033036;28;20194;-52
2023/04/04 01:45:16;;;;;;;2.60;2.40;;;;;;;9.21;100.00;63907.59;5033040;28;20209;-57
2023/04/04 01:47:42;;;;;;;3.07;2.40;;;;;;;9.17;100.00;63901.25;5033072;28;20201;-54
2023/04/04 01:50:10;;;;;;;2.43;2.23;;;;;;;9.14;100.00;63899.94;5033257;28;20217;-51
2023/04/04 01:52:36;;;;;;;1.87;1.53;;;;;;;9.07;100.00;63892.28;5032795;28;20221;-56
2023/04/04 01:55:02;;;;;;;2.97;1.77;;;;;;;9.09;100.00;63894.47;5033123;28;20202;-51
2023/04/04 01:57:29;;;;;;;1.80;1.70;;;;;;;9.05;100.00;63890.63;5033154;28;20217;-52
2023/04/04 01:59:54;;;;;;;2.03;1.93;;;;;;;9.27;100.00;63914.16;5032826;28;20253;-54
2023/04/04 02:02:20;;;;;;;1.63;1.53;;;;;;;9.31;100.00;63916.00;5032970;28;20194;-54
2023/04/04 02:04:45;;;;;;;1.70;1.60;;;;;;;9.13;100.00;63899.38;5032889;28;20202;-58
2023/04/04 02:07:10;;;;;;;1.93;1.73;;;;;;;9.09;100.00;63891.97;5015127;28;20191;-51
2023/04/04 02:09:37;;;;;;;1.77;1.67;;;;;;;9.15;100.00;63899.06;5032595;28;20217;-56
2023/04/04 02:12:02;;;;;;;1.30;1.20;;;;;;;9.07;100.00;63892.28;5032584;28;20271;-53
2023/04/04 02:14:27;;;;;;;1.13;1.03;;;;;;;9.14;100.00;63897.41;5032537;28;20688;-53
2023/04/04 02:16:53;;;;;;;1.20;1.10;;;;;;;9.19;100.00;63903.44;5032594;28;20277;-51
2023/04/04 02:19:18;;;;;;;1.10;1.00;;;;;;;9.14;100.00;63900.50;5040034;22;20218;-52
2023/04/04 02:21:44;;;;;;;1.00;1.00;;;;;;;8.99;100.00;63881.03;5032527;28;20201;-56
2023/04/04 02:24:10;;;;;;;1.00;0.90;;;;;;;8.89;100.00;63872.59;5032799;28;20583;-52
2023/04/04 02:26:35;;;;;;;0.70;0.70;;;;;;;8.96;100.00;63880.25;5032508;28;20344;-52
2023/04/04 02:29:01;;;;;;;1.00;0.77;;;;;;;8.93;100.00;63875.00;5032535;28;20248;-55
2023/04/04 02:31:27;;;;;;;0.50;0.50;;;;;;;8.94;100.00;63878.63;5014700;28;20222;-52
2023/04/04 02:33:52;;;;;;;0.50;0.50;;;;;;;8.93;100.00;63876.97;5032277;28;20627;-52
2023/04/04 02:36:18;;;;;;;0.93;0.67;;;;;;;8.99;100.00;63881.03;5032340;28;20201;-57
2023/04/04 02:38:43;;;;;;;1.50;0.73;;;;;;;8.95;100.00;63881.69;5032230;28;20578;-54
2023/04/04 02:41:08;;;;;;;0.70;0.70;;;;;;;8.91;100.00;63880.38;5032377;28;20193;-53
2023/04/04 02:43:34;;;;;;;0.77;0.77;;;;;;;8.86;100.00;63864.88;5031317;28;20227;-55
2023/04/04 02:45:59;;;;;;;0.87;0.43;;;;;;;8.84;100.00;63867.72;5032216;28;20639;-52
2023/04/04 02:48:24;;;;;;;0.77;0.77;;;;;;;8.95;100.00;63874.13;5032115;28;20190;-56
2023/04/04 02:50:50;;;;;;;0.50;0.50;;;;;;;9.04;100.00;63887.03;5014628;28;20375;-57
2023/04/04 02:53:16;;;;;;;1.93;1.40;;;;;;;9.07;100.00;63892.28;5031846;28;20216;-55
2023/04/04 02:55:41;;;;;;;2.57;0.90;;;;;;;9.08;100.00;63893.94;5032123;28;20580;-51
2023/04/04 02:58:07;;;;;;;0.70;0.70;;;;;;;9.13;100.00;63893.81;5032178;28;20201;-53
2023/04/04 03:00:33;;;;;;;0.80;0.80;;;;;;;9.02;100.00;63886.81;5014116;28;20221;-51
2023/04/04 03:02:59;;;;;;;0.67;0.63;;;;;;;8.94;100.00;63876.13;5031954;28;20226;-55
2023/04/04 03:05:26;;;;;;;0.60;0.60;;;;;;;9.16;100.00;63897.09;5031860;28;20274;-57
2023/04/04 03:07:55;;;;;;;1.10;0.80;;;;;;;9.15;100.00;63901.03;5031925;28;20251;-52
2023/04/04 03:10:22;;;;;;;0.70;0.70;;;;;;;9.15;100.00;63898.53;5031906;28;20210;-53
2023/04/04 03:12:47;;;;;;;1.00;0.80;;;;;;;9.22;100.00;63906.16;5031487;28;20297;-55
2023/04/04 03:15:13;;;;;;;0.50;0.50;;;;;;;9.23;100.00;63909.78;5031899;28;20657;-59
2023/04/04 03:17:39;;;;;;;0.50;0.47;;;;;;;9.29;100.00;63916.88;5031606;28;20190;-55
2023/04/04 03:20:05;;;;;;;0.60;0.60;;;;;;;9.37;100.00;63925.09;5031405;28;20224;-51
2023/04/04 03:22:31;;;;;;;0.60;0.60;;;;;;;9.30;100.00;63915.47;5014047;28;20690;-57
2023/04/04 03:24:57;;;;;;;0.70;0.70;;;;;;;9.48;100.00;63934.59;5031554;28;20209;-52
2023/04/04 03:27:22;;;;;;;0.83;0.70;;;;;;;9.48;100.00;63936.56;5031464;28;20220;-55
2023/04/04 03:29:47;;;;;;;0.93;0.83;;;;;;;9.42;100.00;63925.50;5031488;28;20229;-58
2023/04/04 03:32:13;;;;;;;0.80;0.70;;;;;;;9.60;100.00;63947.16;5031431;28;20236;-58
2023/04/04 03:34:38;;;;;;;1.20;1.10;;;;;;;9.38;100.00;63921.13;5031169;28;20592;-55
2023/04/04 03:37:04;;;;;;;1.20;1.00;;;;;;;9.48;100.00;63936.56;5031395;28;20624;-51
2023/04/04 03:39:29;;;;;;;2.17;1.43;;;;;;;9.53;100.00;63939.50;5031374;28;20369;-51
2023/04/04 03:41:56;;;;;;;1.17;1.00;;;;;;;9.53;100.00;63937.00;5031401;28;20194;-58
2023/04/04 03:44:22;;;;;;;1.37;1.23;;;;;;;9.52;100.00;63941.47;5031358;28;20216;-57
2023/04/04 03:46:47;;;;;;;1.80;1.47;;;;;;;9.58;100.00;63947.50;5031200;28;20206;-52
2023/04/04 03:49:13;;;;;;;1.80;1.37;;;;;;;9.52;100.00;63940.94;5031244;28;20205;-55
2023/04/04 03:51:38;;;;;;;1.97;1.40;;;;;;;9.55;100.00;63942.25;5031413;28;20225;-52
2023/04/04 03:54:03;;;;;;;1.73;1.60;;;;;;;9.43;100.00;63931.66;5012511;28;20571;-51
2023/04/04 03:56:36;;;;;;;2.30;1.70;;;;;;;9.38;100.00;63928.13;5030573;28;20236;-55
2023/04/04 03:59:02;;;;;;;1.23;1.13;;;;;;;9.38;100.00;63926.16;5013245;28;20225;-54
2023/04/04 04:01:34;;;;;;;2.83;1.97;;;;;;;9.39;100.00;63924.22;5030941;28;20616;-54
2023/04/04 04:04:00;;;;;;;2.50;2.30;;;;;;;9.34;100.00;63924.31;5030872;28;20214;-52
2023/04/04 04:06:26;;;;;;;2.47;2.10;;;;;;;9.47;100.00;63936.03;5013434;28;20609;-52
2023/04/04 04:08:52;;;;;;;2.70;2.03;;;;;;;9.53;100.00;63939.50;5030835;28;20272;-53
2023/04/04 04:11:17;;;;;;;2.57;1.93;;;;;;;9.73;100.00;63961.94;5013287;28;20588;-55
2023/04/04 04:13:43;;;;;;;4.83;3.27;;;;;;;9.75;100.00;63966.09;5030793;28;20190;-55
2023/04/04 04:16:08;;;;;;;3.37;3.00;;;;;;;9.73;100.00;63961.38;5030825;28;20276;-52
2023/04/04 04:18:33;;;;;;;6.20;3.27;;;;;;;9.69;100.00;63957.56;5013358;28;20251;-52
2023/04/04 04:21:01;;;;;;;5.23;3.70;;;;;;;9.78;100.00;63969.91;5013139;28;20235;-55
2023/04/04 04:23:27;;;;;;;6.33;3.93;;;;;;;9.88;100.00;63980.84;5030914;28;20194;-57
2023/04/04 04:25:52;;;;;;;6.73;4.33;;;;;;;10.02;100.00;63996.16;5030861;28;20226;-58
2023/04/04 04:28:18;;;;;;;6.10;4.10;;;;;;;9.86;100.00;63978.66;5030811;28;20186;-57
2023/04/04 04:30:43;;;;;;;3.90;3.43;;;;;;;9.81;100.00;63970.69;5030682;28;20218;-58
2023/04/04 04:33:09;;;;;;;4.93;3.50;;;;;;;9.81;100.00;63972.66;5030545;28;20218;-55
2023/04/04 04:35:38;;;;;;;8.57;3.50;;;;;;;9.85;100.00;63975.06;5030671;28;20300;-55
2023/04/04 04:38:07;;;;;;;4.07;3.23;;;;;;;9.87;100.00;63979.22;5030419;28;20672;-55
2023/04/04 04:40:33;;;;;;;4.53;3.30;;;;;;;10.09;100.00;64001.31;5030466;28;20706;-55
2023/04/04 04:42:58;;;;;;;5.20;4.60;;;;;;;9.99;100.00;63992.88;5030591;28;20726;-57
2023/04/04 04:45:24;;;;;;;4.63;4.23;;;;;;;10.00;100.00;63991.47;5030736;28;20305;-59
2023/04/04 04:47:50;;;;;;;5.33;4.40;;;;;;;9.83;100.00;63972.88;5030665;28;20386;-53
2023/04/04 04:50:16;;;;;;;8.77;5.13;;;;;;;10.02;100.00;63991.13;5012767;28;20346;-51
2023/04/04 04:52:42;;;;;;;6.63;5.13;;;;;;;10.09;100.00;64003.81;5030413;28;20329;-52
2023/04/04 04:55:09;;;;;;;7.93;5.30;;;;;;;10.13;100.00;64008.22;5030449;28;20540;-53
2023/04/04 04:57:35;;;;;;;7.37;4.77;;;;;;;10.25;100.00;64020.25;5030407;28;20194;-55
2023/04/04 05:00:03;;;;;;;4.70;4.00;;;;;;;10.28;100.00;64021.03;5012831;28;20585;-55
2023/04/04 05:02:28;;;;;;;5.97;3.87;;;;;;;10.36;100.00;64029.78;5030405;28;20197;-51
2023/04/04 05:04:54;;;;;;;6.90;3.90;;;;;;;10.35;100.00;64026.16;5030793;28;20214;-51
2023/04/04 05:07:19;;;;;;;4.07;3.43;;;;;;;10.32;100.00;64025.41;5032750;28;20563;-51
2023/04/04 05:09:45;;;;;;;6.23;4.10;;;;;;;10.20;100.00;64014.78;5033655;28;20218;-51
2023/04/04 05:12:10;;;;;;;6.47;4.23;;;;;;;10.24;100.00;64017.19;5033387;28;20707;-50
2023/04/04 05:14:36;;;;;;;6.83;4.50;;;;;;;10.25;100.00;64020.81;5033411;28;20226;-52
2023/04/04 05:17:02;;;;;;;7.17;4.73;;;;;;;9.94;100.00;63987.41;5033342;28;20207;-56
2023/04/04 05:19:28;;;;;;;6.27;3.80;;;;;;;9.91;100.00;63983.59;5033629;28;20222;-52
2023/04/04 05:21:53;;;;;;;4.90;3.30;;;;;;;9.55;100.00;63944.22;5033530;28;20202;-51
2023/04/04 05:24:19;;;;;;;4.47;3.20;;;;;;;9.13;100.00;63899.38;5015223;28;20301;-52
2023/04/04 05:26:45;;;;;;;4.77;3.40;;;;;;;9.09;100.00;63892.50;5034337;28;20743;-51
2023/04/04 05:29:11;;;;;;;4.97;4.00;;;;;;;9.21;100.00;63910.09;5015912;28;20272;-58
2023/04/04 05:31:36;;;;;;;6.00;3.53;;;;;;;9.57;100.00;63946.94;5031854;28;20288;-59
2023/04/04 05:34:07;;;;;;;5.47;3.80;;;;;;;9.72;100.00;63960.84;5032978;28;20285;-51
2023/04/04 05:36:33;;;;;;;6.97;3.83;;;;;;;9.85;100.00;63977.03;5032285;28;20190;-51
2023/04/04 05:38:59;;;;;;;5.27;3.30;;;;;;;9.98;100.00;63989.25;5033155;28;20256;-55
2023/04/04 05:41:25;;;;;;;5.77;4.53;;;;;;;9.90;100.00;63979.97;5033138;28;20202;-67
2023/04/04 05:43:50;;;;;;;5.83;4.47;;;;;;;9.80;100.00;63969.56;5032987;28;20251;-52
2023/04/04 05:46:15;;;;;;;8.03;5.67;;;;;;;9.76;100.00;63965.22;5033164;28;20210;-57
2023/04/04 05:48:41;;;;;;;6.63;4.90;;;;;;;9.42;100.00;63930.53;5032844;28;20194;-57
2023/04/04 05:51:06;;;;;;;5.67;4.47;;;;;;;9.29;100.00;63916.34;5032971;28;20244;-57
2023/04/04 05:53:32;;;;;;;22.17;13.53;;;;;;;9.15;100.00;63896.00;5033108;28;20186;-53
2023/04/04 05:55:58;;;;;;;16.97;9.07;;;;;;;9.00;100.00;63882.13;5032900;28;20214;-57
2023/04/04 05:58:23;;;;;;;8.03;4.93;;;;;;;9.23;100.00;63909.78;5032615;28;20726;-60
2023/04/04 06:00:48;;;;;;;7.00;5.40;;;;;;;9.38;100.00;63925.63;5032943;28;20271;-56
2023/04/04 06:03:15;;;;;;;7.50;5.07;;;;;;;9.28;100.00;63915.78;5033188;28;20192;-58
2023/04/04 06:05:42;;;;;;;9.47;6.13;;;;;;;9.03;100.00;63887.94;5032739;28;20206;-54
2023/04/04 06:08:08;;;;;;;8.67;5.90;;;;;;;8.79;100.00;63859.72;5032693;28;20244;-52
2023/04/04 06:10:33;;;;;;;8.80;6.33;;;;;;;8.90;100.00;63874.25;5032552;28;20214;-54
2023/04/04 06:12:58;;;;;;;6.67;5.40;;;;;;;8.81;100.00;63864.41;5032813;28;20652;-53
2023/04/04 06:15:24;;;;;;;7.67;5.37;;;;;;;8.88;100.00;63872.06;5032935;28;20217;-55
2023/04/04 06:17:49;;;;;;;6.70;5.20;;;;;;;9.03;100.00;63885.41;5037915;28;20534;-52
2023/04/04 06:20:15;;;;;;;11.63;6.67;;;;;;;8.95;100.00;63882.22;5052328;28;20213;-56
2023/04/04 06:22:40;;;;;;;9.10;6.67;;;;;;;9.02;100.00;63884.31;5052413;28;20693;-55
2023/04/04 06:25:09;;;;;;;11.23;7.43;;;;;;;8.99;100.00;63884.09;5052429;28;20209;-54
2023/04/04 06:27:34;;;;;;;12.87;7.87;;;;;;;8.89;100.00;63870.66;5052389;28;20217;-54
2023/04/04 06:30:00;;;;;;;12.70;8.60;;;;;;;9.13;100.00;63898.84;5052150;28;20240;-54
2023/04/04 06:32:26;;;;;;;14.20;10.73;;;;;;;9.00;100.00;63882.13;5052125;28;20213;-56
2023/04/04 06:34:52;;;;;;;15.87;10.93;;;;;;;9.23;100.00;63910.31;5052479;28;20217;-53
2023/04/04 06:37:17;;;;;;;15.43;10.33;;;;;;;9.18;100.00;63904.84;5052249;28;20186;-53
2023/04/04 06:39:43;;;;;;;15.00;9.37;;;;;;;9.86;100.00;63978.66;5051777;28;20209;-51
2023/04/04 06:42:08;;;;;;;15.60;10.77;;;;;;;9.61;100.00;63951.31;5052236;28;20181;-53
2023/04/04 06:44:33;;;;;;;17.23;11.90;;;;;;;9.53;100.00;63940.06;5052074;28;20217;-51
2023/04/04 06:46:59;;;;;;;13.83;10.80;;;;;;;9.61;100.00;63945.75;5051735;28;20190;-52
2023/04/04 06:49:24;;;;;;;12.43;9.97;;;;;;;9.38;100.00;63926.16;5052149;28;20229;-56
2023/04/04 06:51:51;;;;;;;15.30;10.10;;;;;;;9.20;100.00;63903.97;5052051;28;20213;-51
2023/04/04 06:54:16;;;;;;;3.00;2.30;;;;;;;8.56;100.00;63834.59;5051615;28;20714;-51
2023/04/04 06:56:42;;;;;;;1.60;1.50;;;;;;;7.58;100.00;63730.63;5051544;28;20182;-51
2023/04/04 06:59:10;;;;;;;2.70;1.43;;;;;;;7.23;100.00;63689.94;5051588;28;20225;-52
2023/04/04 07:01:35;;;;;;;1.57;1.30;;;;;;;7.00;100.00;63664.84;5051077;28;20193;-55
2023/04/04 07:04:01;;;;;;;1.67;1.20;;;;;;;6.65;100.00;63630.28;5051933;28;20219;-52
2023/04/04 07:06:28;;;;;;;1.13;0.90;;;;;;;6.29;100.00;63593.56;5051681;28;20185;-52
2023/04/04 07:08:54;;;;;;;1.00;0.90;;;;;;;6.13;100.00;63573.63;5051244;28;20221;-50
2023/04/04 07:11:22;;;;;;;2.30;1.20;;;;;;;6.16;100.00;63576.34;5051053;28;20193;-50
2023/04/04 07:13:48;;;;;;;1.57;1.00;;;;;;;6.22;100.00;63583.41;5050859;28;20206;-56
2023/04/04 07:16:13;;;;;;;3.87;0.90;;;;;;;5.91;100.00;63549.66;5051570;28;20195;-56
2023/04/04 07:18:39;;;;;;;0.60;0.60;;;;;;;5.62;100.00;63518.59;5051105;28;20651;-58
2023/04/04 07:21:04;;;;;;;0.53;0.53;;;;;;;5.38;100.00;63489.41;5051169;28;20197;-60
2023/04/04 07:23:30;;;;;;;1.43;0.60;;;;;;;5.29;100.00;63482.66;5051514;28;20177;-58
2023/04/04 07:25:55;;;;;;;2.87;0.70;;;;;;;5.13;100.00;63468.28;5051485;28;20223;-52
2023/04/04 07:28:21;;;;;;;0.40;0.40;;;;;;;5.00;100.00;63449.16;5051128;28;20183;-55
2023/04/04 07:30:47;;;;;;;2.27;0.77;;;;;;;5.18;100.00;63472.63;5050819;28;20220;-51
2023/04/04 07:33:12;;;;;;;2.13;1.00;;;;;;;5.03;100.00;63454.91;5051066;28;20295;-54
2023/04/04 07:35:37;;;;;;;1.13;0.60;;;;;;;5.13;100.00;63468.28;5051087;28;20228;-56
2023/04/04 07:38:03;;;;;;;2.10;1.10;;;;;;;5.14;100.00;63466.31;5050841;28;20193;-56
2023/04/04 07:40:29;;;;;;;0.87;0.60;;;;;;;5.03;100.00;63454.34;5051057;28;20701;-56
2023/04/04 07:42:55;;;;;;;1.37;1.00;;;;;;;4.99;100.00;63450.53;5051293;28;20276;-55
2023/04/04 07:45:23;;;;;;;1.47;1.27;;;;;;;4.96;100.00;63446.75;5051217;28;20207;-59
2023/04/04 07:47:48;;;;;;;1.73;1.27;;;;;;;4.88;100.00;63435.53;5051169;28;20197;-52
2023/04/04 07:50:15;;;;;;;1.77;1.20;;;;;;;4.89;100.00;63439.13;5049977;28;20224;-58
2023/04/04 07:52:41;;;;;;;2.80;1.43;;;;;;;4.91;100.00;63441.84;5050214;28;20223;-52
2023/04/04 07:55:07;;;;;;;2.40;1.27;;;;;;;4.87;100.00;63437.47;5050187;28;20216;-52
2023/04/04 07:57:37;;;;;;;4.23;1.30;;;;;;;4.97;100.00;63445.31;5050976;28;20674;-53
2023/04/04 08:00:10;;;;;;;1.20;1.10;;;;;;;4.76;100.00;63428.03;5050873;28;20214;-59
2023/04/04 08:02:36;;;;;;;3.20;1.53;;;;;;;4.59;100.00;63404.53;5051033;28;20182;-55
2023/04/04 08:05:02;;;;;;;1.67;1.20;;;;;;;4.75;100.00;63423.88;5051040;28;20217;-55
2023/04/04 08:07:28;;;;;;;2.07;0.90;;;;;;;4.72;100.00;63418.69;5033051;28;20192;-53
2023/04/04 08:09:53;;;;;;;1.00;0.90;;;;;;;4.88;100.00;63438.03;5051134;28;20820;-52
2023/04/04 08:12:19;;;;;;;2.27;1.00;;;;;;;4.72;100.00;63418.69;5050814;28;20255;-53
2023/04/04 08:14:44;;;;;;;2.23;1.47;;;;;;;4.75;100.00;63424.44;5051217;28;20221;-57
2023/04/04 08:17:11;;;;;;;0.87;0.83;;;;;;;4.68;100.00;63416.81;5050934;28;20630;-52
2023/04/04 08:19:36;;;;;;;1.00;0.80;;;;;;;4.58;100.00;63405.41;5050936;28;20223;-52
2023/04/04 08:22:01;;;;;;;1.00;0.90;;;;;;;4.45;100.00;63394.28;5050788;28;20647;-53
2023/04/04 08:24:27;;;;;;;1.10;0.60;;;;;;;4.34;100.00;63377.34;5050410;28;20213;-52
2023/04/04 08:26:53;;;;;;;1.10;0.70;;;;;;;5.42;100.00;63496.81;5050775;28;20252;-55
2023/04/04 08:29:18;;;;;;;0.70;0.70;;;;;;;4.74;100.00;63422.81;5050471;28;20227;-57
2023/04/04 08:31:44;;;;;;;0.93;0.77;;;;;;;4.18;100.00;63364.94;5050827;28;20211;-54
2023/04/04 08:34:10;;;;;;;1.20;0.97;;;;;;;4.22;100.00;63364.31;5050758;28;20228;-55
2023/04/04 08:36:35;;;;;;;1.67;1.53;;;;;;;4.18;100.00;63362.97;5050555;28;20190;-54
2023/04/04 08:39:02;;;;;;;1.00;0.83;;;;;;;4.16;100.00;63360.81;5050553;28;20216;-52
2023/04/04 08:41:28;;;;;;;0.73;0.73;;;;;;;4.13;100.00;63352.56;5051993;28;20196;-58
2023/04/04 08:43:56;;;;;;;1.00;0.70;;;;;;;4.04;100.00;63347.22;5053891;28;20224;-57
2023/04/04 08:46:24;;;;;;;0.87;0.87;;;;;;;4.06;100.00;63352.41;5053321;28;20578;-58
2023/04/04 08:48:51;;;;;;;1.20;0.90;;;;;;;4.00;100.00;63345.38;5053681;28;20184;-53
2023/04/04 08:51:20;;;;;;;2.87;0.90;;;;;;;3.91;100.00;63330.59;5053931;28;20196;-53
2023/04/04 08:53:46;;;;;;;0.93;0.70;;;;;;;3.94;100.00;63336.34;5053165;28;20213;-58
2023/04/04 08:56:12;;;;;;;1.23;0.97;;;;;;;3.85;100.00;63326.56;5053800;28;20241;-58
2023/04/04 08:58:38;;;;;;;0.83;0.83;;;;;;;3.83;100.00;63322.44;5053675;28;20179;-58
2023/04/04 09:01:05;;;;;;;2.70;1.00;;;;;;;3.82;100.00;63320.78;5053755;28;20684;-56
2023/04/04 09:03:33;;;;;;;1.23;0.90;;;;;;;3.88;100.00;63327.34;5035468;28;20209;-58
2023/04/04 09:06:00;;;;;;;0.93;0.80;;;;;;;3.73;100.00;63314.06;5053786;28;20197;-58
2023/04/04 09:08:27;;;;;;;1.47;0.73;;;;;;;3.64;100.00;63303.72;5053042;28;20574;-53
2023/04/04 09:10:53;;;;;;;1.23;0.80;;;;;;;3.62;100.00;63302.09;5053198;28;20240;-52
2023/04/04 09:13:19;;;;;;;1.33;1.23;;;;;;;3.67;100.00;63310.03;5053605;28;20216;-54
2023/04/04 09:15:47;;;;;;;1.17;1.00;;;;;;;3.67;100.00;63307.53;5053806;28;20276;-52
2023/04/04 09:18:12;;;;;;;1.27;0.93;;;;;;;3.57;100.00;63299.16;5052898;28;20598;-53
2023/04/04 09:20:41;;;;;;;1.83;1.57;;;;;;;3.73;100.00;63313.53;5053208;28;20213;-54
2023/04/04 09:23:14;;;;;;;2.70;1.90;;;;;;;3.81;100.00;63325.25;5053431;28;20201;-56
2023/04/04 09:25:48;;;;;;;6.40;1.90;;;;;;;3.91;100.00;63333.63;5053653;28;20356;-57
2023/04/04 09:28:17;;;;;;;3.87;1.53;;;;;;;4.04;100.00;63347.75;5053302;28;20669;-56
2023/04/04 09:30:44;;;;;;;2.90;1.53;;;;;;;4.13;100.00;63357.53;5053225;28;20591;-55
2023/04/04 09:33:11;;;;;;;2.00;1.20;;;;;;;4.13;100.00;63357.53;5053133;28;20297;-57
2023/04/04 09:35:40;;;;;;;2.07;1.40;;;;;;;4.07;100.00;63350.47;5053593;28;20256;-53
2023/04/04 09:38:07;;;;;;;2.73;1.13;;;;;;;3.84;100.00;63326.00;5053109;28;20186;-53
2023/04/04 09:40:35;;;;;;;1.63;1.20;;;;;;;3.95;100.00;63334.94;5053423;28;20303;-56
2023/04/04 09:43:02;;;;;;;2.33;1.50;;;;;;;4.01;100.00;63343.94;5052973;28;20212;-56
2023/04/04 09:45:31;;;;;;;1.50;1.40;;;;;;;3.92;100.00;63337.19;5052208;28;20210;-57
2023/04/04 09:47:57;;;;;;;3.50;1.60;;;;;;;3.94;100.00;63336.34;5052241;28;20210;-56
2023/04/04 09:50:24;;;;;;;1.60;1.43;;;;;;;4.01;100.00;63346.44;5052335;28;20233;-58
2023/04/04 09:52:51;;;;;;;1.50;1.00;;;;;;;4.04;100.00;63347.22;5051504;28;20290;-57
2023/04/04 09:55:17;;;;;;;1.10;0.93;;;;;;;4.10;100.00;63354.28;5052913;28;20229;-58
2023/04/04 09:57:43;;;;;;;1.50;1.27;;;;;;;4.23;100.00;63370.91;5052462;28;20557;-57
2023/04/04 10:00:11;;;;;;;2.57;2.00;;;;;;;4.28;100.00;63370.81;5052864;28;20250;-57
2023/04/04 10:02:44;;;;;;;2.70;1.50;;;;;;;4.11;100.00;63355.38;5052578;28;20190;-53
2023/04/04 10:05:10;;;;;;;1.60;1.50;;;;;;;3.86;100.00;63328.19;5052955;28;20214;-53
2023/04/04 10:07:38;;;;;;;2.73;1.80;;;;;;;3.83;100.00;63324.94;5052577;28;20187;-56
2023/04/04 10:10:10;;;;;;;1.43;1.23;;;;;;;3.76;100.00;63316.78;5052545;28;20209;-57
2023/04/04 10:12:36;;;;;;;2.23;1.50;;;;;;;3.71;100.00;63308.84;5052444;28;20765;-53
2023/04/04 10:15:02;;;;;;;1.60;1.40;;;;;;;3.77;100.00;63320.91;5052293;28;20258;-53
2023/04/04 10:17:35;;;;;;;1.30;1.20;;;;;;;3.85;100.00;63327.09;5052470;28;20570;-59
2023/04/04 10:20:05;;;;;;;2.20;1.50;;;;;;;3.79;100.00;63320.59;5052541;28;20225;-57
2023/04/04 10:22:36;;;;;;;2.03;1.30;;;;;;;3.86;100.00;63327.63;5034491;28;20193;-53
2023/04/04 10:25:06;;;;;;;1.83;1.67;;;;;;;3.74;100.00;63317.09;5052365;28;20308;-52
2023/04/04 10:27:32;;;;;;;2.70;1.60;;;;;;;3.84;100.00;63322.97;5034816;28;20317;-53
2023/04/04 10:29:59;;;;;;;1.50;1.40;;;;;;;3.80;100.00;63321.66;5052390;28;20285;-58
2023/04/04 10:32:49;;;;;;;1.50;1.40;;;;;;;3.93;100.00;63335.81;5052392;28;20205;-58
2023/04/04 10:35:16;;;;;;;4.23;1.50;;;;;;;3.87;100.00;63328.72;5052483;28;20213;-57
2023/04/04 10:37:59;;;;;;;2.13;1.70;;;;;;;3.89;100.00;63333.41;5052102;28;20186;-56
2023/04/04 10:40:33;;;;;;;3.93;1.50;;;;;;;3.83;100.00;63327.44;5052395;28;20591;-53
2023/04/04 10:43:02;;;;;;;3.73;1.63;;;;;;;3.80;100.00;63321.66;5052338;28;20283;-53
2023/04/04 10:45:30;;;;;;;3.30;2.07;;;;;;;3.82;100.00;63323.84;5052312;28;20213;-56
2023/04/04 10:47:56;;;;;;;3.07;1.90;;;;;;;3.82;100.00;63320.78;5052272;28;20734;-57
2023/04/04 10:50:21;;;;;;;2.43;1.73;;;;;;;3.95;100.00;63339.91;5052183;28;20228;-59
2023/04/04 10:52:48;;;;;;;2.43;1.83;;;;;;;4.06;100.00;63346.91;5051884;28;20681;-60
2023/04/04 10:55:14;;;;;;;2.00;1.73;;;;;;;3.99;100.00;63341.78;5033876;28;20222;-58
2023/04/04 10:57:46;;;;;;;1.77;1.60;;;;;;;4.13;100.00;63357.00;5051871;28;20709;-59
2023/04/04 11:00:16;;;;;;;3.07;2.27;;;;;;;4.20;100.00;63364.63;5033831;28;20304;-60
2023/04/04 11:02:43;;;;;;;1.63;1.47;;;;;;;4.10;100.00;63356.25;5051920;28;20195;-57
2023/04/04 11:05:17;;;;;;;1.90;1.70;;;;;;;3.95;100.00;63337.97;5051099;28;20220;-57
2023/04/04 11:07:45;;;;;;;3.20;1.70;;;;;;;3.99;100.00;63344.28;5051900;28;20696;-58
2023/04/04 11:10:19;;;;;;;2.47;1.80;;;;;;;4.03;100.00;63346.69;5051899;28;20758;-53
2023/04/04 11:12:46;;;;;;;1.57;1.47;;;;;;;3.99;100.00;63341.78;5051469;28;20220;-54
2023/04/04 11:15:13;;;;;;;2.63;1.70;;;;;;;4.00;100.00;63342.88;5051874;28;20205;-54
2023/04/04 11:17:41;;;;;;;1.97;1.73;;;;;;;3.98;100.00;63340.69;5051574;28;20193;-54
2023/04/04 11:20:13;;;;;;;2.67;1.67;;;;;;;3.90;100.00;63332.00;5033523;28;20304;-55
2023/04/04 11:22:41;;;;;;;2.57;1.87;;;;;;;3.87;100.00;63329.28;5033829;28;20655;-57
2023/04/04 11:25:31;;;;;;;2.13;1.90;;;;;;;3.97;100.00;63339.59;5050274;28;20724;-58
2023/04/04 11:27:58;;;;;;;2.63;2.10;;;;;;;4.17;100.00;63361.91;5051523;28;20181;-56
2023/04/04 11:30:29;;;;;;;3.27;2.23;;;;;;;4.25;100.00;63367.56;5051612;28;20297;-52